Burns, Wyoming
Current Conditions -  °F | °C
As of 8:35 PM on Monday 20 Oct 2014 (Local Time) from K82V Reporting Station
Clear Clear  
Wind Chill: 59°   Ceiling: Unl
Heat Index: 59°   Visibility: 10mi
Dew Point: 32°   Wind: 12mph
Humidity: 36%   Direction: 170°S
Pressure: 30.07"   Gusts: 16mph
Location:  41.19°N, 104.36°W
Report Text: K82V 210235Z AUTO 17010G14KT 10SM CLR 15/00 A3007 RMK AO2
Loading
Personal Weather Stations






























Interactive Weather Map
Tropical Storm Tracking
New forecast layout! Learn more

10-Day Weather Forecast

Advertisements
Track Severe Weather on mobile